Time;durP1;ratioP1;P1;durP2;ratioP2;P2;SDS_P1;SDS_P2;PMS_P1;PMS_P2;Temp;Humidity;BMP_temperature;BMP_pressure;BME280_temperature;BME280_humidity;BME280_pressure;Samples;Min_cycle;Max_cycle;Signal;HPM_P1;HPM_P2
2020/12/18 00:02:21;;;;;;;7.83;5.20;;;4.90;88.90;;;;;;5056638;28;20028;-88
2020/12/18 00:04:46;;;;;;;9.20;5.50;;;4.90;88.40;;;;;;5056023;28;20045;-87
2020/12/18 00:07:12;;;;;;;7.70;4.73;;;4.80;88.50;;;;;;5056450;28;20029;-87
2020/12/18 00:09:38;;;;;;;7.53;4.50;;;4.80;88.50;;;;;;5056010;28;20029;-88
2020/12/18 00:12:03;;;;;;;10.17;5.20;;;4.70;88.50;;;;;;5056031;28;20025;-87
2020/12/18 00:14:29;;;;;;;9.83;5.70;;;4.60;88.30;;;;;;5055669;28;20029;-87
2020/12/18 00:16:55;;;;;;;11.10;4.87;;;4.60;88.30;;;;;;5056259;28;20021;-88
2020/12/18 00:19:21;;;;;;;8.43;4.93;;;4.60;88.50;;;;;;5056260;28;20123;-89
2020/12/18 00:21:46;;;;;;;8.53;4.70;;;4.60;88.30;;;;;;5055711;28;20304;-87
2020/12/18 00:24:12;;;;;;;9.80;5.90;;;4.50;88.30;;;;;;5055948;28;20040;-87
2020/12/18 00:26:37;;;;;;;8.20;5.00;;;4.50;88.50;;;;;;5055350;28;20025;-88
2020/12/18 00:29:03;;;;;;;10.00;5.20;;;4.40;88.40;;;;;;5056036;28;20166;-88
2020/12/18 00:31:29;;;;;;;12.00;5.43;;;4.40;88.60;;;;;;5055383;28;20035;-87
2020/12/18 00:33:55;;;;;;;7.10;5.00;;;4.40;88.40;;;;;;5055796;28;20083;-88
2020/12/18 00:36:20;;;;;;;9.60;5.50;;;4.40;88.10;;;;;;5056784;28;20021;-88
2020/12/18 00:38:46;;;;;;;7.53;5.40;;;4.40;88.10;;;;;;5055483;28;20418;-89
2020/12/18 00:41:12;;;;;;;9.30;5.13;;;4.40;87.90;;;;;;5055752;28;20035;-89
2020/12/18 00:43:38;;;;;;;8.23;5.47;;;4.40;87.70;;;;;;5056439;28;20047;-89
2020/12/18 00:46:04;;;;;;;9.17;5.20;;;4.40;87.70;;;;;;5057059;28;20446;-88
2020/12/18 00:48:30;;;;;;;8.20;4.87;;;4.40;87.30;;;;;;5055031;28;20108;-86
2020/12/18 00:50:56;;;;;;;7.43;5.30;;;4.40;87.30;;;;;;5055598;28;20068;-89
2020/12/18 00:53:21;;;;;;;8.70;5.60;;;4.40;86.70;;;;;;5055342;28;20527;-88
2020/12/18 00:55:47;;;;;;;10.97;5.80;;;4.30;86.50;;;;;;5054750;28;20041;-88
2020/12/18 00:58:13;;;;;;;10.60;5.30;;;4.20;86.70;;;;;;5056404;28;20168;-88
2020/12/18 01:00:39;;;;;;;8.67;5.27;;;4.10;86.80;;;;;;5057839;28;20060;-88
2020/12/18 01:03:04;;;;;;;8.27;5.07;;;4.10;87.10;;;;;;5058435;28;20090;-89
2020/12/18 01:05:30;;;;;;;7.00;4.73;;;4.00;87.60;;;;;;5056096;28;20083;-86
2020/12/18 01:07:55;;;;;;;7.63;4.47;;;4.00;87.80;;;;;;5040050;28;20048;-89
2020/12/18 01:10:21;;;;;;;9.17;5.13;;;4.00;87.70;;;;;;5037060;28;20022;-88
2020/12/18 01:12:48;;;;;;;7.97;4.73;;;3.90;87.80;;;;;;5036201;28;20049;-88
2020/12/18 01:15:13;;;;;;;11.23;5.17;;;3.90;88.20;;;;;;5036611;28;20069;-88
2020/12/18 01:17:39;;;;;;;8.90;5.00;;;3.90;88.50;;;;;;5034468;28;20379;-85
2020/12/18 01:20:05;;;;;;;9.93;5.13;;;3.90;88.30;;;;;;5038568;28;20482;-85
2020/12/18 01:22:30;;;;;;;7.53;5.00;;;3.90;88.00;;;;;;5055630;28;20055;-85
2020/12/18 01:24:56;;;;;;;7.27;4.60;;;3.90;88.00;;;;;;5037745;28;20040;-85
2020/12/18 01:27:21;;;;;;;7.83;5.07;;;3.90;88.20;;;;;;5038443;28;20029;-88
2020/12/18 01:29:47;;;;;;;9.27;5.10;;;3.90;88.30;;;;;;5055324;28;20031;-88
2020/12/18 01:32:13;;;;;;;7.40;5.10;;;3.80;88.30;;;;;;5038575;28;20025;-88
2020/12/18 01:34:38;;;;;;;8.50;4.63;;;3.80;88.10;;;;;;5055314;28;20033;-88
2020/12/18 01:37:04;;;;;;;8.03;4.77;;;3.80;87.80;;;;;;5038369;28;20031;-88
2020/12/18 01:39:30;;;;;;;6.80;4.60;;;3.80;88.30;;;;;;5037393;28;20021;-87
2020/12/18 01:41:56;;;;;;;8.93;4.83;;;3.80;88.50;;;;;;5031965;28;20075;-87
2020/12/18 01:44:21;;;;;;;8.33;5.47;;;3.90;88.10;;;;;;5030256;28;20498;-87
2020/12/18 01:46:47;;;;;;;8.83;5.13;;;3.80;88.00;;;;;;5017439;28;20056;-87
2020/12/18 01:49:13;;;;;;;9.27;4.77;;;3.80;87.70;;;;;;5016112;28;20784;-87
2020/12/18 01:51:39;;;;;;;10.97;5.77;;;3.80;88.10;;;;;;5014821;28;20075;-87
2020/12/18 01:54:05;;;;;;;8.83;4.80;;;3.80;88.10;;;;;;5017790;28;20052;-87
2020/12/18 01:56:31;;;;;;;10.70;5.10;;;3.80;88.30;;;;;;5017735;28;20025;-87
2020/12/18 01:58:57;;;;;;;8.27;5.07;;;3.80;88.30;;;;;;5017428;28;20096;-88
2020/12/18 02:01:23;;;;;;;8.43;4.60;;;3.70;88.40;;;;;;5017842;28;20108;-87
2020/12/18 02:03:48;;;;;;;11.40;5.27;;;3.80;88.50;;;;;;5017161;28;20493;-88
2020/12/18 02:06:16;;;;;;;7.10;4.70;;;3.70;88.30;;;;;;5017626;28;20089;-87
2020/12/18 02:08:43;;;;;;;8.23;5.03;;;3.80;88.40;;;;;;5001089;28;20014;-87
2020/12/18 02:11:17;;;;;;;10.60;4.70;;;3.70;88.10;;;;;;5017410;28;20108;-87
2020/12/18 02:13:42;;;;;;;7.30;4.70;;;3.70;88.20;;;;;;5016962;28;20129;-87
2020/12/18 02:16:09;;;;;;;7.67;4.37;;;3.70;88.00;;;;;;5017394;28;20064;-87
2020/12/18 02:18:35;;;;;;;8.37;4.70;;;3.60;87.80;;;;;;5016185;28;20477;-87
2020/12/18 02:21:03;;;;;;;8.87;5.03;;;3.60;88.10;;;;;;5017481;28;20041;-87
2020/12/18 02:23:30;;;;;;;7.33;4.77;;;3.60;87.50;;;;;;5034906;28;20026;-87
2020/12/18 02:26:10;;;;;;;7.47;4.80;;;3.50;87.60;;;;;;5016977;28;20045;-87
2020/12/18 02:28:45;;;;;;;8.00;4.70;;;3.50;87.60;;;;;;5016761;28;20034;-87
2020/12/18 02:31:11;;;;;;;12.63;5.57;;;3.40;87.60;;;;;;5017029;28;20073;-87
2020/12/18 02:33:40;;;;;;;8.50;4.77;;;3.40;87.60;;;;;;5016487;28;20091;-87
2020/12/18 02:36:06;;;;;;;7.13;4.53;;;3.40;87.70;;;;;;5017071;28;20091;-87
2020/12/18 02:38:33;;;;;;;9.53;4.93;;;3.30;87.40;;;;;;5034578;28;20025;-87
2020/12/18 02:40:59;;;;;;;8.37;5.10;;;3.30;87.70;;;;;;5034853;28;20104;-87
2020/12/18 02:43:24;;;;;;;10.60;5.07;;;3.20;88.10;;;;;;5023178;28;20041;-86
2020/12/18 02:45:50;;;;;;;7.70;4.60;;;3.30;87.50;;;;;;5056683;28;20049;-86
2020/12/18 02:48:16;;;;;;;10.80;4.97;;;3.30;87.80;;;;;;5064024;28;20250;-85
2020/12/18 02:50:42;;;;;;;7.47;4.90;;;3.30;87.70;;;;;;5044338;28;20363;-85
2020/12/18 02:53:19;;;;;;;7.00;4.67;;;3.20;87.70;;;;;;5066752;28;20021;-86
2020/12/18 02:55:46;;;;;;;8.93;4.60;;;3.20;87.80;;;;;;5064436;28;20059;-86
2020/12/18 02:58:12;;;;;;;9.33;4.53;;;3.30;87.80;;;;;;5068452;28;20442;-86
2020/12/18 03:00:39;;;;;;;6.60;4.70;;;3.30;87.70;;;;;;5049598;28;20024;-85
2020/12/18 03:03:05;;;;;;;11.23;5.00;;;3.30;87.80;;;;;;5038660;28;20059;-87
2020/12/18 03:05:32;;;;;;;7.87;4.63;;;3.30;87.40;;;;;;5062093;28;20032;-86
2020/12/18 03:07:58;;;;;;;7.73;4.57;;;3.20;87.60;;;;;;5036268;28;20021;-86
2020/12/18 03:10:24;;;;;;;8.70;4.70;;;3.10;87.30;;;;;;5036537;28;20021;-87
2020/12/18 03:12:49;;;;;;;8.50;4.80;;;3.10;87.80;;;;;;5036139;28;20021;-87
2020/12/18 03:15:15;;;;;;;7.60;4.57;;;3.10;87.70;;;;;;5053945;28;20029;-87
2020/12/18 03:17:41;;;;;;;6.00;4.00;;;3.00;87.80;;;;;;5053588;28;20082;-87
2020/12/18 03:20:07;;;;;;;7.30;4.40;;;3.00;88.40;;;;;;5036533;28;20064;-87
2020/12/18 03:22:33;;;;;;;7.97;4.13;;;3.00;88.60;;;;;;5036578;28;20074;-87
2020/12/18 03:24:59;;;;;;;9.37;4.67;;;3.00;88.10;;;;;;5053592;28;20021;-87
2020/12/18 03:27:25;;;;;;;8.70;4.47;;;3.00;88.00;;;;;;5053942;28;20085;-87
2020/12/18 03:29:51;;;;;;;6.30;4.17;;;3.00;88.00;;;;;;5037619;28;20442;-87
2020/12/18 03:32:17;;;;;;;6.27;4.37;;;2.90;88.10;;;;;;5040724;28;20025;-86
2020/12/18 03:34:43;;;;;;;8.53;4.20;;;3.00;88.00;;;;;;5039897;28;20029;-87
2020/12/18 03:37:09;;;;;;;8.60;4.33;;;3.00;87.80;;;;;;5040352;28;20469;-86
2020/12/18 03:39:35;;;;;;;8.47;4.50;;;2.90;87.50;;;;;;5040427;28;20040;-86
2020/12/18 03:42:01;;;;;;;8.07;4.33;;;2.90;87.60;;;;;;5057477;28;20028;-87
2020/12/18 03:44:27;;;;;;;6.93;4.30;;;2.70;88.40;;;;;;5057751;28;20048;-86
2020/12/18 03:46:52;;;;;;;7.90;4.80;;;2.80;89.20;;;;;;5040028;28;20056;-87
2020/12/18 03:49:18;;;;;;;7.43;4.50;;;2.80;89.20;;;;;;5040472;28;20032;-86
2020/12/18 03:51:43;;;;;;;6.17;4.33;;;2.80;88.60;;;;;;5039914;28;20017;-87
2020/12/18 03:54:09;;;;;;;9.37;4.40;;;2.80;88.20;;;;;;5039855;28;20457;-86
2020/12/18 03:56:35;;;;;;;7.57;4.60;;;2.80;88.50;;;;;;5040118;28;20025;-87
2020/12/18 03:59:01;;;;;;;7.63;4.20;;;2.80;88.90;;;;;;5039502;28;20029;-87
2020/12/18 04:01:27;;;;;;;7.30;3.90;;;2.80;88.10;;;;;;5040018;28;20032;-87
2020/12/18 04:03:53;;;;;;;6.97;3.67;;;2.80;88.00;;;;;;5039640;28;20106;-87
2020/12/18 04:06:18;;;;;;;7.07;4.17;;;2.80;87.90;;;;;;5057385;28;20019;-87
2020/12/18 04:08:45;;;;;;;5.00;3.93;;;2.80;88.10;;;;;;5057097;28;20442;-86
2020/12/18 04:11:10;;;;;;;6.07;3.47;;;2.90;88.40;;;;;;5039720;28;20549;-87
2020/12/18 04:13:36;;;;;;;5.43;3.60;;;2.90;88.00;;;;;;5039938;28;20044;-87
2020/12/18 04:16:02;;;;;;;5.90;4.10;;;2.90;87.80;;;;;;5039169;28;20033;-87
2020/12/18 04:18:28;;;;;;;6.80;3.73;;;2.90;87.40;;;;;;5039382;28;20021;-87
2020/12/18 04:20:54;;;;;;;7.97;4.20;;;2.80;87.40;;;;;;5039060;28;20087;-87
2020/12/18 04:23:19;;;;;;;4.27;3.57;;;2.80;87.60;;;;;;5039544;28;20035;-87
2020/12/18 04:25:45;;;;;;;6.47;4.00;;;2.80;87.70;;;;;;5039153;28;20021;-87
2020/12/18 04:28:11;;;;;;;6.17;4.13;;;2.80;87.40;;;;;;5039398;28;20039;-87
2020/12/18 04:30:36;;;;;;;5.37;3.70;;;2.80;87.40;;;;;;5039332;28;20036;-87
2020/12/18 04:33:02;;;;;;;8.87;3.67;;;2.70;87.50;;;;;;5038895;28;20605;-87
2020/12/18 04:35:28;;;;;;;7.10;3.90;;;2.70;87.40;;;;;;5039490;28;20033;-87
2020/12/18 04:37:53;;;;;;;7.93;4.00;;;2.70;87.50;;;;;;5039051;28;20438;-87
2020/12/18 04:40:19;;;;;;;5.23;3.57;;;2.70;87.50;;;;;;5039023;28;20028;-87
2020/12/18 04:42:45;;;;;;;7.77;3.90;;;2.60;87.70;;;;;;5038114;28;20074;-87
2020/12/18 04:45:12;;;;;;;5.63;4.13;;;2.60;87.70;;;;;;5039270;28;20041;-87
2020/12/18 04:47:42;;;;;;;5.30;3.87;;;2.60;87.40;;;;;;5039253;28;20048;-87
2020/12/18 04:50:09;;;;;;;6.30;3.90;;;2.50;87.10;;;;;;5039404;28;20021;-87
2020/12/18 04:52:38;;;;;;;6.73;3.90;;;2.50;87.20;;;;;;5038911;28;20055;-87
2020/12/18 04:55:04;;;;;;;4.40;3.70;;;2.50;87.00;;;;;;5038053;28;20032;-87
2020/12/18 04:57:33;;;;;;;6.47;3.73;;;2.40;86.90;;;;;;5038914;28;20036;-87
2020/12/18 05:00:04;;;;;;;6.13;3.73;;;2.40;86.90;;;;;;5038670;28;20025;-87
2020/12/18 05:02:30;;;;;;;8.20;3.80;;;2.30;86.80;;;;;;5039033;28;20092;-87
2020/12/18 05:04:56;;;;;;;5.60;3.80;;;2.30;86.80;;;;;;5038112;28;20120;-87
2020/12/18 05:07:22;;;;;;;6.17;3.70;;;2.30;87.20;;;;;;5038675;28;20056;-87
2020/12/18 05:09:52;;;;;;;6.13;3.63;;;2.40;87.00;;;;;;5038212;28;20065;-86
2020/12/18 05:12:18;;;;;;;5.30;3.57;;;2.40;86.60;;;;;;5038630;28;20470;-86
2020/12/18 05:14:44;;;;;;;5.67;3.70;;;2.30;86.60;;;;;;5037741;28;20086;-87
2020/12/18 05:17:10;;;;;;;5.40;3.80;;;2.20;87.10;;;;;;5038471;28;20077;-86
2020/12/18 05:19:41;;;;;;;5.43;3.70;;;2.10;87.60;;;;;;5038510;28;20094;-86
2020/12/18 05:22:09;;;;;;;7.87;4.30;;;2.10;88.70;;;;;;5038147;28;20123;-86
2020/12/18 05:24:37;;;;;;;7.20;4.40;;;2.20;89.30;;;;;;5038419;28;20025;-86
2020/12/18 05:27:04;;;;;;;6.30;4.20;;;2.20;89.20;;;;;;5055249;28;20104;-86
2020/12/18 05:29:30;;;;;;;6.47;3.83;;;2.20;89.30;;;;;;5038366;28;20040;-87
2020/12/18 05:31:57;;;;;;;7.37;4.10;;;2.30;89.40;;;;;;5037853;28;20052;-86
2020/12/18 05:34:23;;;;;;;7.00;4.20;;;2.20;89.50;;;;;;5055815;28;20033;-87
2020/12/18 05:36:49;;;;;;;6.73;4.20;;;2.30;89.70;;;;;;5055256;28;20091;-86
2020/12/18 05:39:15;;;;;;;9.73;4.40;;;2.30;90.30;;;;;;5055609;28;20021;-87
2020/12/18 05:42:01;;;;;;;7.53;4.37;;;2.40;90.20;;;;;;5055719;28;20458;-86
2020/12/18 05:44:29;;;;;;;6.57;4.50;;;2.30;89.60;;;;;;5037482;28;20143;-86
2020/12/18 05:47:05;;;;;;;6.03;4.30;;;2.30;89.50;;;;;;5037358;28;20037;-86
2020/12/18 05:49:38;;;;;;;9.03;4.10;;;2.30;89.20;;;;;;5038262;28;20075;-87
2020/12/18 05:52:06;;;;;;;7.73;4.23;;;2.30;89.20;;;;;;5037557;28;20083;-86
2020/12/18 05:54:36;;;;;;;6.77;4.30;;;2.30;89.20;;;;;;5037676;28;20029;-87
2020/12/18 05:57:16;;;;;;;7.63;4.50;;;2.30;89.10;;;;;;5037091;28;20025;-87
2020/12/18 05:59:46;;;;;;;6.77;4.57;;;2.30;89.30;;;;;;5037629;28;20120;-87
2020/12/18 06:02:14;;;;;;;7.33;4.57;;;2.30;89.50;;;;;;5037630;28;20028;-86
2020/12/18 06:04:41;;;;;;;7.53;4.30;;;2.30;88.90;;;;;;5037689;28;20086;-87
2020/12/18 06:07:07;;;;;;;8.00;4.40;;;2.30;88.80;;;;;;5037066;28;20033;-87
2020/12/18 06:09:38;;;;;;;8.30;5.47;;;2.30;89.00;;;;;;5037484;28;20025;-86
2020/12/18 06:12:15;;;;;;;7.43;4.60;;;2.40;89.10;;;;;;5037207;28;20041;-87
2020/12/18 06:14:41;;;;;;;10.90;5.40;;;2.40;88.90;;;;;;5037567;28;20037;-87
2020/12/18 06:17:11;;;;;;;12.10;5.47;;;2.50;89.00;;;;;;5036934;28;20056;-87
2020/12/18 06:19:41;;;;;;;9.10;4.87;;;2.40;88.20;;;;;;5054833;28;20055;-86
2020/12/18 06:22:10;;;;;;;7.67;4.77;;;2.40;88.30;;;;;;5036827;28;20205;-86
2020/12/18 06:24:39;;;;;;;12.03;4.93;;;2.40;88.50;;;;;;5037056;28;20032;-87
2020/12/18 06:27:08;;;;;;;14.73;6.10;;;2.30;88.60;;;;;;5036815;28;20044;-87
2020/12/18 06:29:33;;;;;;;17.97;7.43;;;2.40;89.50;;;;;;5054803;28;20137;-88
2020/12/18 06:32:27;;;;;;;13.87;6.37;;;2.40;90.00;;;;;;5054134;28;20470;-87
2020/12/18 06:34:54;;;;;;;14.20;5.73;;;2.50;89.80;;;;;;5036328;28;20056;-87
2020/12/18 06:37:28;;;;;;;14.93;6.27;;;2.50;90.00;;;;;;5055053;28;20028;-86
2020/12/18 06:39:53;;;;;;;17.03;6.43;;;2.50;89.70;;;;;;5036383;28;20036;-87
2020/12/18 06:42:28;;;;;;;9.20;5.30;;;2.50;89.40;;;;;;5036866;28;20024;-87
2020/12/18 06:44:56;;;;;;;9.97;5.57;;;2.40;88.50;;;;;;5036206;28;20045;-87
2020/12/18 06:47:25;;;;;;;10.53;5.10;;;2.40;88.60;;;;;;5036616;28;20052;-87
2020/12/18 06:49:56;;;;;;;10.27;5.23;;;2.30;88.50;;;;;;5053754;28;20037;-87
2020/12/18 06:52:38;;;;;;;12.57;5.60;;;2.30;88.20;;;;;;5036943;28;20090;-86
2020/12/18 06:55:05;;;;;;;12.55;5.57;;;2.30;88.30;;;;;;5036097;28;20128;-87
2020/12/18 06:57:31;;;;;;;13.57;6.37;;;2.30;87.90;;;;;;5036563;28;20058;-87
2020/12/18 07:00:26;;;;;;;13.77;6.57;;;2.30;88.30;;;;;;5036089;28;20124;-86
2020/12/18 07:02:52;;;;;;;14.07;6.13;;;2.30;88.90;;;;;;5036340;28;20112;-87
2020/12/18 07:05:43;;;;;;;13.27;6.40;;;2.30;89.20;;;;;;5059405;28;20060;-86
2020/12/18 07:08:13;;;;;;;9.93;5.77;;;2.20;88.90;;;;;;5065557;28;20029;-86
2020/12/18 07:10:41;;;;;;;11.50;5.87;;;2.20;88.40;;;;;;5045882;28;20055;-86
2020/12/18 07:13:11;;;;;;;8.33;5.07;;;2.10;88.00;;;;;;5047415;28;20090;-86
2020/12/18 07:15:43;;;;;;;10.27;6.33;;;2.10;88.40;;;;;;5044431;28;20053;-86
2020/12/18 07:18:19;;;;;;;11.15;5.60;;;2.10;88.70;;;;;;5057826;28;20025;-86
2020/12/18 07:20:59;;;;;;;11.60;6.40;;;2.10;88.70;;;;;;5040075;28;20029;-87
2020/12/18 07:23:27;;;;;;;7.97;5.43;;;2.10;88.60;;;;;;5037544;28;20029;-86
2020/12/18 07:25:53;;;;;;;9.33;5.20;;;2.10;88.00;;;;;;5036173;28;20029;-86
2020/12/18 07:28:20;;;;;;;8.80;5.67;;;2.00;87.90;;;;;;5036405;28;20125;-87
2020/12/18 07:30:48;;;;;;;10.40;5.60;;;2.00;88.00;;;;;;5036245;28;20029;-87
2020/12/18 07:33:16;;;;;;;12.13;5.53;;;2.00;88.00;;;;;;5035685;28;20143;-88
2020/12/18 07:35:48;;;;;;;9.13;5.27;;;2.00;87.70;;;;;;5053816;28;20059;-88
2020/12/18 07:38:33;;;;;;;11.23;4.67;;;2.00;87.80;;;;;;5035504;28;20029;-87
2020/12/18 07:41:00;;;;;;;13.43;5.77;;;2.00;87.50;;;;;;5035504;28;20269;-88
2020/12/18 07:43:31;;;;;;;10.70;5.33;;;2.00;87.40;;;;;;5053682;28;20083;-87
2020/12/18 07:45:59;;;;;;;7.87;4.80;;;2.00;87.50;;;;;;5035383;28;20045;-87
2020/12/18 07:48:29;;;;;;;8.90;5.57;;;2.00;87.60;;;;;;5036045;28;20064;-87
2020/12/18 07:51:07;;;;;;;8.60;4.67;;;2.00;87.40;;;;;;5035916;28;20025;-87
2020/12/18 07:53:38;;;;;;;9.90;4.70;;;2.00;87.60;;;;;;5036335;28;20116;-87
2020/12/18 07:56:11;;;;;;;8.27;4.87;;;2.00;87.60;;;;;;5052792;28;20037;-87
2020/12/18 07:58:48;;;;;;;7.03;4.70;;;2.00;87.60;;;;;;5036084;28;20029;-87
2020/12/18 08:01:24;;;;;;;8.03;4.80;;;2.10;87.40;;;;;;5035545;28;20032;-87
2020/12/18 08:03:58;;;;;;;9.30;5.40;;;2.00;87.00;;;;;;5036062;28;20022;-87
2020/12/18 08:06:25;;;;;;;9.40;4.80;;;1.80;87.20;;;;;;5035775;28;20052;-87
2020/12/18 08:09:00;;;;;;;14.47;7.80;;;1.80;88.30;;;;;;5053540;28;20025;-86
2020/12/18 08:11:29;;;;;;;17.47;10.70;;;1.90;88.90;;;;;;5036052;28;20025;-87
2020/12/18 08:13:58;;;;;;;14.33;8.37;;;2.00;89.20;;;;;;5035352;28;20031;-87
2020/12/18 08:16:26;;;;;;;19.83;11.20;;;2.00;89.80;;;;;;5055511;28;20033;-87
2020/12/18 08:19:00;;;;;;;15.80;9.27;;;2.10;88.80;;;;;;5039531;28;20021;-86
2020/12/18 08:21:46;;;;;;;14.83;9.50;;;2.10;89.00;;;;;;5039442;28;20029;-87
2020/12/18 08:24:38;;;;;;;15.93;8.57;;;2.10;89.30;;;;;;5039131;28;20025;-87
2020/12/18 08:27:11;;;;;;;15.20;8.68;;;2.20;89.50;;;;;;5056875;28;20028;-86
2020/12/18 08:29:38;;;;;;;23.43;10.20;;;2.10;89.80;;;;;;5039799;28;20059;-87
2020/12/18 08:32:05;;;;;;;19.37;9.97;;;2.10;90.00;;;;;;5038811;28;20029;-86
2020/12/18 08:34:33;;;;;;;12.33;7.60;;;1.90;90.20;;;;;;5039241;28;20032;-86
2020/12/18 08:36:59;;;;;;;11.80;6.73;;;2.00;90.50;;;;;;5038300;28;20054;-86
2020/12/18 08:39:32;;;;;;;26.97;7.47;;;2.10;90.60;;;;;;5039323;28;20092;-86
2020/12/18 08:41:58;;;;;;;13.00;7.43;;;2.20;90.60;;;;;;5038910;28;20025;-87
2020/12/18 08:44:35;;;;;;;29.57;10.13;;;2.20;90.80;;;;;;5038721;28;20021;-86
2020/12/18 08:47:01;;;;;;;29.30;7.30;;;2.30;90.70;;;;;;5056054;28;20025;-86
2020/12/18 08:49:28;;;;;;;23.07;6.53;;;2.30;90.60;;;;;;5038836;28;20031;-86
2020/12/18 08:51:55;;;;;;;66.07;9.23;;;2.40;90.80;;;;;;5038784;28;20378;-87
2020/12/18 08:54:23;;;;;;;13.37;5.97;;;2.40;90.80;;;;;;5038631;28;20115;-88
2020/12/18 08:57:25;;;;;;;31.37;7.37;;;2.50;91.20;;;;;;5056621;28;20107;-80
2020/12/18 09:00:08;;;;;;;13.73;6.37;;;2.50;91.20;;;;;;5056317;28;20025;-86
2020/12/18 09:02:38;;;;;;;12.60;6.37;;;2.60;91.10;;;;;;5056496;28;20254;-87
2020/12/18 09:05:22;;;;;;;48.97;7.47;;;2.70;91.20;;;;;;5038343;28;20032;-88
2020/12/18 09:07:52;;;;;;;20.40;6.90;;;2.70;90.80;;;;;;5038801;28;20029;-87
2020/12/18 09:10:36;;;;;;;13.63;5.63;;;2.70;91.20;;;;;;5037974;28;20025;-85
2020/12/18 09:13:22;;;;;;;15.03;6.33;;;2.80;91.20;;;;;;5038083;28;20025;-85
2020/12/18 09:15:59;;;;;;;20.73;6.23;;;2.90;90.90;;;;;;5038292;28;20043;-84
2020/12/18 09:18:27;;;;;;;16.00;6.10;;;3.00;90.70;;;;;;5038557;28;20024;-86
2020/12/18 09:20:54;;;;;;;18.10;6.57;;;3.00;90.70;;;;;;5038356;28;20057;-84
2020/12/18 09:23:31;;;;;;;15.27;6.00;;;3.00;90.70;;;;;;5037758;28;20032;-85
2020/12/18 09:25:58;;;;;;;12.57;6.63;;;3.00;90.80;;;;;;5038274;28;20029;-84
2020/12/18 09:28:24;;;;;;;13.37;6.60;;;3.10;90.90;;;;;;5038604;28;20025;-86
2020/12/18 09:30:55;;;;;;;18.13;7.43;;;3.10;91.10;;;;;;5038494;28;20060;-86
2020/12/18 09:33:23;;;;;;;17.50;7.17;;;3.20;90.70;;;;;;5037527;28;20112;-86
2020/12/18 09:35:49;;;;;;;18.90;6.73;;;3.20;90.50;;;;;;5037793;28;20059;-86
2020/12/18 09:38:20;;;;;;;33.50;8.27;;;3.20;90.70;;;;;;5055160;28;20461;-85
2020/12/18 09:40:45;;;;;;;26.37;7.70;;;3.20;90.70;;;;;;5038098;28;20033;-84
2020/12/18 09:43:11;;;;;;;22.53;7.83;;;3.20;90.70;;;;;;5037454;28;20024;-85
2020/12/18 09:45:36;;;;;;;24.63;7.80;;;3.20;90.90;;;;;;5055114;28;20057;-86
2020/12/18 09:48:02;;;;;;;19.73;7.67;;;3.20;90.90;;;;;;5038079;28;20107;-86
2020/12/18 09:50:28;;;;;;;19.87;7.47;;;3.20;90.90;;;;;;5055629;28;20045;-84
2020/12/18 09:52:54;;;;;;;18.10;7.33;;;3.20;91.10;;;;;;5039313;28;20025;-85
2020/12/18 09:55:19;;;;;;;27.13;8.27;;;3.30;91.00;;;;;;5038274;28;20269;-85
2020/12/18 09:57:45;;;;;;;23.43;8.33;;;3.30;90.80;;;;;;5038101;28;20079;-86
2020/12/18 10:00:10;;;;;;;18.70;7.90;;;3.30;90.90;;;;;;5038234;28;20068;-85
2020/12/18 10:02:36;;;;;;;16.97;8.37;;;3.40;91.00;;;;;;5038869;28;20028;-87
2020/12/18 10:05:02;;;;;;;18.37;8.60;;;3.50;91.00;;;;;;5038093;28;20029;-86
2020/12/18 10:07:28;;;;;;;17.93;8.70;;;3.50;90.90;;;;;;5038011;28;20083;-85
2020/12/18 10:09:54;;;;;;;15.67;8.40;;;3.50;90.70;;;;;;5038341;28;20420;-85
2020/12/18 10:12:19;;;;;;;35.23;9.43;;;3.50;90.60;;;;;;5037240;28;20021;-84
2020/12/18 10:14:45;;;;;;;18.87;9.17;;;3.50;90.60;;;;;;5039016;28;20037;-86
2020/12/18 10:17:11;;;;;;;29.17;9.37;;;3.50;90.70;;;;;;5038669;28;20021;-85
2020/12/18 10:19:37;;;;;;;27.37;9.33;;;3.60;90.60;;;;;;5037924;28;20021;-84
2020/12/18 10:22:03;;;;;;;24.00;9.43;;;3.60;90.50;;;;;;5037093;28;20112;-84
2020/12/18 10:24:29;;;;;;;18.30;9.20;;;3.60;90.50;;;;;;5055391;28;20056;-84
2020/12/18 10:26:55;;;;;;;17.27;9.20;;;3.70;90.60;;;;;;5037555;28;20036;-83
2020/12/18 10:29:20;;;;;;;16.80;9.10;;;3.80;90.60;;;;;;5037481;28;20036;-85
2020/12/18 10:31:50;;;;;;;18.10;9.23;;;3.80;90.60;;;;;;5038066;28;20463;-86
2020/12/18 10:34:16;;;;;;;18.17;8.77;;;4.00;90.70;;;;;;5037923;28;20032;-83
2020/12/18 10:36:42;;;;;;;26.23;9.57;;;4.10;90.60;;;;;;5038076;28;20025;-85
2020/12/18 10:39:07;;;;;;;17.07;9.13;;;4.10;90.50;;;;;;5036615;28;20030;-84
2020/12/18 10:41:34;;;;;;;19.73;9.23;;;4.10;90.40;;;;;;5020896;28;20053;-85
2020/12/18 10:43:59;;;;;;;21.33;9.43;;;4.10;90.40;;;;;;5036952;28;20025;-85
2020/12/18 10:46:25;;;;;;;17.57;9.03;;;4.10;90.40;;;;;;5054375;28;20094;-85
2020/12/18 10:48:51;;;;;;;20.20;9.90;;;4.20;90.50;;;;;;5036700;28;20040;-84
2020/12/18 10:51:16;;;;;;;20.47;9.33;;;4.20;90.40;;;;;;5036671;28;20044;-85
2020/12/18 10:53:42;;;;;;;32.43;11.83;;;4.30;90.50;;;;;;5055067;28;20035;-85
2020/12/18 10:56:08;;;;;;;18.87;8.90;;;4.30;90.50;;;;;;5055064;28;20033;-85
2020/12/18 10:58:33;;;;;;;27.73;12.30;;;4.40;90.60;;;;;;5054700;28;20040;-84
2020/12/18 11:00:59;;;;;;;86.10;37.00;;;4.40;90.40;;;;;;5055721;28;20104;-83
2020/12/18 11:03:24;;;;;;;25.07;12.00;;;4.40;90.40;;;;;;5054765;28;20033;-86
2020/12/18 11:05:50;;;;;;;28.30;12.23;;;4.40;90.50;;;;;;5037353;28;20033;-85
2020/12/18 11:08:16;;;;;;;56.83;18.97;;;4.50;90.60;;;;;;5054815;28;20051;-84
2020/12/18 11:10:41;;;;;;;25.67;9.70;;;4.40;90.50;;;;;;5038124;28;20032;-85
2020/12/18 11:13:07;;;;;;;19.73;10.30;;;4.50;90.60;;;;;;5036466;28;20029;-85
2020/12/18 11:15:32;;;;;;;21.43;9.03;;;4.50;90.50;;;;;;5037469;28;20032;-84
2020/12/18 11:17:58;;;;;;;19.13;8.63;;;4.60;90.40;;;;;;5037284;28;20036;-85
2020/12/18 11:20:24;;;;;;;21.97;9.07;;;4.50;90.30;;;;;;5036048;28;20053;-84
2020/12/18 11:22:49;;;;;;;16.37;8.53;;;4.50;90.40;;;;;;5054722;28;20067;-85
2020/12/18 11:25:15;;;;;;;19.70;9.60;;;4.60;90.60;;;;;;5036888;28;20092;-85
2020/12/18 11:27:40;;;;;;;24.37;9.67;;;4.70;90.60;;;;;;5037971;28;20029;-84
2020/12/18 11:30:06;;;;;;;22.87;9.40;;;4.80;90.50;;;;;;5037095;28;20052;-85
2020/12/18 11:32:32;;;;;;;20.63;9.37;;;4.70;90.30;;;;;;5037677;28;20028;-85
2020/12/18 11:34:57;;;;;;;19.53;9.40;;;4.70;90.40;;;;;;5037096;28;20041;-84
2020/12/18 11:37:23;;;;;;;18.97;8.87;;;4.80;90.50;;;;;;5037613;28;20078;-84
2020/12/18 11:39:49;;;;;;;19.93;9.27;;;4.80;90.40;;;;;;5054489;28;20021;-85
2020/12/18 11:42:14;;;;;;;20.53;9.23;;;4.80;90.50;;;;;;5054045;28;20355;-85
2020/12/18 11:44:40;;;;;;;21.10;9.07;;;4.80;90.70;;;;;;5036148;28;20397;-84
2020/12/18 11:47:06;;;;;;;19.10;9.67;;;4.90;90.60;;;;;;5036227;28;20485;-86
2020/12/18 11:49:32;;;;;;;19.80;9.47;;;5.00;90.50;;;;;;5036916;28;20052;-85
2020/12/18 11:51:57;;;;;;;20.40;8.87;;;5.00;90.50;;;;;;5040231;28;20033;-84
2020/12/18 11:54:23;;;;;;;28.97;9.47;;;5.00;90.20;;;;;;5039877;28;20035;-83
2020/12/18 11:56:49;;;;;;;25.90;9.57;;;5.10;90.30;;;;;;5039832;28;20474;-83
2020/12/18 11:59:15;;;;;;;25.97;10.80;;;5.10;90.20;;;;;;5039961;28;20474;-85
2020/12/18 12:01:41;;;;;;;24.90;9.90;;;5.00;90.20;;;;;;5057630;28;20029;-84
2020/12/18 12:04:06;;;;;;;19.77;9.63;;;5.10;90.40;;;;;;5040352;28;20024;-86
2020/12/18 12:06:32;;;;;;;21.87;10.30;;;5.10;90.20;;;;;;5039922;28;20116;-83
2020/12/18 12:09:03;;;;;;;21.80;10.17;;;5.20;90.20;;;;;;5039729;28;20032;-84
2020/12/18 12:11:36;;;;;;;21.00;10.43;;;5.20;90.20;;;;;;5039321;28;20059;-85
2020/12/18 12:14:02;;;;;;;22.63;9.93;;;5.30;90.20;;;;;;5057432;28;20028;-84
2020/12/18 12:16:32;;;;;;;20.83;10.93;;;5.30;90.20;;;;;;5039226;28;20041;-84
2020/12/18 12:18:58;;;;;;;23.63;11.50;;;5.30;90.20;;;;;;5057289;28;20497;-84
2020/12/18 12:21:34;;;;;;;25.20;10.40;;;5.40;90.20;;;;;;5038897;28;20025;-84
2020/12/18 12:24:00;;;;;;;24.07;10.63;;;5.40;90.10;;;;;;5057046;28;20021;-84
2020/12/18 12:26:26;;;;;;;31.50;11.10;;;5.50;90.20;;;;;;5040479;28;20162;-84
2020/12/18 12:28:53;;;;;;;26.73;11.03;;;5.40;89.80;;;;;;5040546;28;20033;-85
2020/12/18 12:31:19;;;;;;;21.50;10.43;;;5.40;90.20;;;;;;5039922;28;20025;-85
2020/12/18 12:33:44;;;;;;;22.13;9.73;;;5.40;90.20;;;;;;5040401;28;20120;-84
2020/12/18 12:36:10;;;;;;;20.07;10.17;;;5.40;90.30;;;;;;5039815;28;20061;-85
2020/12/18 12:38:35;;;;;;;22.67;10.87;;;5.50;90.30;;;;;;5057973;28;20464;-83
2020/12/18 12:41:01;;;;;;;48.53;14.03;;;5.50;90.30;;;;;;5040729;28;20031;-84
2020/12/18 12:43:27;;;;;;;27.83;11.63;;;5.50;90.20;;;;;;5040043;28;20389;-85
2020/12/18 12:45:53;;;;;;;28.00;11.43;;;5.50;90.40;;;;;;5040272;28;20049;-85
2020/12/18 12:48:18;;;;;;;25.50;12.00;;;5.50;90.50;;;;;;5057310;28;20021;-84
2020/12/18 12:50:44;;;;;;;32.03;11.83;;;5.50;90.50;;;;;;5040504;28;20029;-85
2020/12/18 12:53:10;;;;;;;29.13;12.00;;;5.50;90.50;;;;;;5057011;28;20052;-84
2020/12/18 12:55:35;;;;;;;28.97;12.10;;;5.50;90.50;;;;;;5038804;28;20063;-85